APL Sentosa — S6LT5 — position and weather

sailwx.info

Track history (hours):
 
Tides and Currents Weather Stations Pressure Air Temp Water Temp Dewpoint Dewpoint Depression Visibility Wind Speed Wind Dir Waves Ship Positions

APL Sentosa

Last reported at 2018-Feb-20 18:22 UTC. Time now 2018-Feb-20 19:13 UTC.
Position N 24°19' E 118°43'.

Length 369 m; draft 13.9 m.

Type: Ship (hazmat cat A). MMSI: 563251000.

Date/timePositionNaut miles runAvg speedWind from/ knotsBaromVisibWave heightAir tempDewpointWater temp
2018-Feb-20 18:22N 24°19' E 118°43'718.9
2018-Feb-20 18:00N 24°16' E 118°36'1019.4
2018-Feb-20 17:30N 24°12' E 118°26'816.0
2018-Feb-20 17:00N 24°11' E 118°17'816.3
2018-Feb-20 16:30N 24°18' E 118°13'713.8
2018-Feb-20 16:01N 24°23' E 118°07'611.2
2018-Feb-20 15:30N 24°26' E 118°02'4 7.4
2018-Feb-20 15:00N 24°27' E 117°58'0 0.2
2018-Feb-20 14:29N 24°27' E 117°58'0 0.0
2018-Feb-20 14:00N 24°27' E 117°58'0 0.0
2018-Feb-20 13:30N 24°27' E 117°58'0 0.0
2018-Feb-20 13:00N 24°27' E 117°58'0 0.0
2018-Feb-20 12:29N 24°27' E 117°58'0 0.0
2018-Feb-20 11:59N 24°27' E 117°58'0 0.0
2018-Feb-20 11:29N 24°27' E 117°58'0 0.0
2018-Feb-20 10:59N 24°27' E 117°58'0 0.0
2018-Feb-20 10:26N 24°27' E 117°58'0 0.0
2018-Feb-20 09:59N 24°27' E 117°58'0 0.0
2018-Feb-20 09:29N 24°27' E 117°58'0 0.0
2018-Feb-20 08:59N 24°27' E 117°58'0 0.0
2018-Feb-20 08:29N 24°27' E 117°58'0 0.0
2018-Feb-20 07:59N 24°27' E 117°58'0 0.0
2018-Feb-20 07:29N 24°27' E 117°58'0 0.0
2018-Feb-20 06:59N 24°27' E 117°58'0 0.0
2018-Feb-20 06:29N 24°27' E 117°58'0 0.0
2018-Feb-20 05:59N 24°27' E 117°58'0 0.0
2018-Feb-20 05:29N 24°27' E 117°58'0 0.0
2018-Feb-20 04:59N 24°27' E 117°58'0 0.0
2018-Feb-20 04:29N 24°27' E 117°58'0 0.0
2018-Feb-20 03:59N 24°27' E 117°58'0 0.0
2018-Feb-20 03:29N 24°27' E 117°58'0 0.0
2018-Feb-20 02:59N 24°27' E 117°58'0 0.0
2018-Feb-20 02:29N 24°27' E 117°58'0 0.0
2018-Feb-20 01:59N 24°27' E 117°58'0 0.0
2018-Feb-20 01:29N 24°27' E 117°58'0 0.0
2018-Feb-20 00:59N 24°27' E 117°58'0 0.0
2018-Feb-20 00:29N 24°27' E 117°58'0 0.0
2018-Feb-19 23:59N 24°27' E 117°58'0 0.0
2018-Feb-19 23:29N 24°27' E 117°58'0 0.0
2018-Feb-19 22:59N 24°27' E 117°58'0 0.0
2018-Feb-19 22:29N 24°27' E 117°58'0 0.0
2018-Feb-19 21:59N 24°27' E 117°58'0 0.0
2018-Feb-19 21:23N 24°27' E 117°58'0 0.0
2018-Feb-19 20:59N 24°27' E 117°58'0 0.0
2018-Feb-19 20:26N 24°27' E 117°58'0 0.0
2018-Feb-19 19:59N 24°27' E 117°58'0 0.0
2018-Feb-19 19:29N 24°27' E 117°58'0 0.0
2018-Feb-19 18:59N 24°27' E 117°58'0 0.0
2018-Feb-19 18:29N 24°27' E 117°58'0 0.0
2018-Feb-19 17:59N 24°27' E 117°58'0 0.0
2018-Feb-19 17:26N 24°27' E 117°58'0 0.0
2018-Feb-19 16:59N 24°27' E 117°58'0 0.0
2018-Feb-19 16:29N 24°27' E 117°58'0 0.0
2018-Feb-19 15:53N 24°27' E 117°58'0 0.0
2018-Feb-19 15:29N 24°27' E 117°58'0 0.1
2018-Feb-19 14:59N 24°27' E 117°58'0 1.0
2018-Feb-19 14:30N 24°27' E 117°59'4 7.3
2018-Feb-19 14:00N 24°26' E 118°03'612.7
2018-Feb-19 13:30N 24°22' E 118°08'611.7
2018-Feb-19 13:00N 24°18' E 118°13'714.7
2018-Feb-19 12:30N 24°13' E 118°19'1 2.1
2018-Feb-19 12:00N 24°14' E 118°18'1 1.8
2018-Feb-19 11:30N 24°13' E 118°18'510.8
2018-Feb-19 11:00N 24°08' E 118°20'815.1
2018-Feb-19 10:30N 24°00' E 118°22'816.4
2018-Feb-19 10:00N 23°54' E 118°16'816.2
2018-Feb-19 09:30N 23°48' E 118°10'815.8
2018-Feb-19 09:00N 23°43' E 118°04'816.6
2018-Feb-19 08:30N 23°37' E 117°57'1017.6
2018-Feb-19 07:56N 23°31' E 117°49'817.8
2018-Feb-19 07:30N 23°26' E 117°43'917.9
2018-Feb-19 06:59N 23°20' E 117°35'1019.1
2018-Feb-19 06:28N 23°14' E 117°26'  
2018-Feb-15 14:22N 22°20' E 114°08'0 0.0
2018-Feb-15 10:40N 22°20' E 114°08'0 0.0
2018-Feb-15 10:28N 22°20' E 114°08'  
2018-Feb-12 18:57N 23°16' E 117°28'817.3
2018-Feb-12 18:30N 23°22' E 117°33'917.0
2018-Feb-12 18:00N 23°28' E 117°39'917.0
2018-Feb-12 17:28N 23°33' E 117°47'817.1
2018-Feb-12 16:59N 23°38' E 117°55'1316.8
2018-Feb-12 16:14N 23°46' E 118°05'  
Track history (hours):
 
Tides and Currents Weather Stations Pressure Air Temp Water Temp Dewpoint Dewpoint Depression Visibility Wind Speed Wind Dir Waves Ship Positions

APL Sentosa

Last reported at 2018-Feb-20 18:22 UTC. Time now 2018-Feb-20 19:13 UTC.
Position N 24°19' E 118°43'.

Length 369 m; draft 13.9 m.

Type: Ship (hazmat cat A). MMSI: 563251000.

Date/timePositionNaut miles runAvg speedWind from/ knotsBaromVisibWave heightAir tempDewpointWater temp
2018-Feb-20 18:22N 24°19' E 118°43'718.9
2018-Feb-20 18:00N 24°16' E 118°36'1019.4
2018-Feb-20 17:30N 24°12' E 118°26'816.0
2018-Feb-20 17:00N 24°11' E 118°17'816.3
2018-Feb-20 16:30N 24°18' E 118°13'713.8
2018-Feb-20 16:01N 24°23' E 118°07'611.2
2018-Feb-20 15:30N 24°26' E 118°02'4 7.4
2018-Feb-20 15:00N 24°27' E 117°58'0 0.2
2018-Feb-20 14:29N 24°27' E 117°58'0 0.0
2018-Feb-20 14:00N 24°27' E 117°58'0 0.0
2018-Feb-20 13:30N 24°27' E 117°58'0 0.0
2018-Feb-20 13:00N 24°27' E 117°58'0 0.0
2018-Feb-20 12:29N 24°27' E 117°58'0 0.0
2018-Feb-20 11:59N 24°27' E 117°58'0 0.0
2018-Feb-20 11:29N 24°27' E 117°58'0 0.0
2018-Feb-20 10:59N 24°27' E 117°58'0 0.0
2018-Feb-20 10:26N 24°27' E 117°58'0 0.0
2018-Feb-20 09:59N 24°27' E 117°58'0 0.0
2018-Feb-20 09:29N 24°27' E 117°58'0 0.0
2018-Feb-20 08:59N 24°27' E 117°58'0 0.0
2018-Feb-20 08:29N 24°27' E 117°58'0 0.0
2018-Feb-20 07:59N 24°27' E 117°58'0 0.0
2018-Feb-20 07:29N 24°27' E 117°58'0 0.0
2018-Feb-20 06:59N 24°27' E 117°58'0 0.0
2018-Feb-20 06:29N 24°27' E 117°58'0 0.0
2018-Feb-20 05:59N 24°27' E 117°58'0 0.0
2018-Feb-20 05:29N 24°27' E 117°58'0 0.0
2018-Feb-20 04:59N 24°27' E 117°58'0 0.0
2018-Feb-20 04:29N 24°27' E 117°58'0 0.0
2018-Feb-20 03:59N 24°27' E 117°58'0 0.0
2018-Feb-20 03:29N 24°27' E 117°58'0 0.0
2018-Feb-20 02:59N 24°27' E 117°58'0 0.0
2018-Feb-20 02:29N 24°27' E 117°58'0 0.0
2018-Feb-20 01:59N 24°27' E 117°58'0 0.0
2018-Feb-20 01:29N 24°27' E 117°58'0 0.0
2018-Feb-20 00:59N 24°27' E 117°58'0 0.0
2018-Feb-20 00:29N 24°27' E 117°58'0 0.0
2018-Feb-19 23:59N 24°27' E 117°58'0 0.0
2018-Feb-19 23:29N 24°27' E 117°58'0 0.0
2018-Feb-19 22:59N 24°27' E 117°58'0 0.0
2018-Feb-19 22:29N 24°27' E 117°58'0 0.0
2018-Feb-19 21:59N 24°27' E 117°58'0 0.0
2018-Feb-19 21:23N 24°27' E 117°58'0 0.0
2018-Feb-19 20:59N 24°27' E 117°58'0 0.0
2018-Feb-19 20:26N 24°27' E 117°58'0 0.0
2018-Feb-19 19:59N 24°27' E 117°58'0 0.0
2018-Feb-19 19:29N 24°27' E 117°58'0 0.0
2018-Feb-19 18:59N 24°27' E 117°58'0 0.0
2018-Feb-19 18:29N 24°27' E 117°58'0 0.0
2018-Feb-19 17:59N 24°27' E 117°58'0 0.0
2018-Feb-19 17:26N 24°27' E 117°58'0 0.0
2018-Feb-19 16:59N 24°27' E 117°58'0 0.0
2018-Feb-19 16:29N 24°27' E 117°58'0 0.0
2018-Feb-19 15:53N 24°27' E 117°58'0 0.0
2018-Feb-19 15:29N 24°27' E 117°58'0 0.1
2018-Feb-19 14:59N 24°27' E 117°58'0 1.0
2018-Feb-19 14:30N 24°27' E 117°59'4 7.3
2018-Feb-19 14:00N 24°26' E 118°03'612.7
2018-Feb-19 13:30N 24°22' E 118°08'611.7
2018-Feb-19 13:00N 24°18' E 118°13'714.7
2018-Feb-19 12:30N 24°13' E 118°19'1 2.1
2018-Feb-19 12:00N 24°14' E 118°18'1 1.8
2018-Feb-19 11:30N 24°13' E 118°18'510.8
2018-Feb-19 11:00N 24°08' E 118°20'815.1
2018-Feb-19 10:30N 24°00' E 118°22'816.4
2018-Feb-19 10:00N 23°54' E 118°16'816.2
2018-Feb-19 09:30N 23°48' E 118°10'815.8
2018-Feb-19 09:00N 23°43' E 118°04'816.6
2018-Feb-19 08:30N 23°37' E 117°57'1017.6
2018-Feb-19 07:56N 23°31' E 117°49'817.8
2018-Feb-19 07:30N 23°26' E 117°43'917.9
2018-Feb-19 06:59N 23°20' E 117°35'1019.1
2018-Feb-19 06:28N 23°14' E 117°26'  
2018-Feb-15 14:22N 22°20' E 114°08'0 0.0
2018-Feb-15 10:40N 22°20' E 114°08'0 0.0
2018-Feb-15 10:28N 22°20' E 114°08'  
2018-Feb-12 18:57N 23°16' E 117°28'817.3
2018-Feb-12 18:30N 23°22' E 117°33'917.0
2018-Feb-12 18:00N 23°28' E 117°39'917.0
2018-Feb-12 17:28N 23°33' E 117°47'817.1
2018-Feb-12 16:59N 23°38' E 117°55'1316.8
2018-Feb-12 16:14N 23°46' E 118°05'  

Dump ship's entire track history